Metar Aviation Weather Data YMML

12°C Temp
8°C Dewpoint
% Humidity
Temperature
27 KM/H
17 MPH
15 KTS
280°
Due West

Wind Speed
Partly Cloudy
Conditions
Pressure 1010.92 (hPa) - 29.85 (in)
Visibility 6.2 (mi) - 10 (km)

Current Conditions
YMML
Metar :YMML 151030Z 28015KT 9999 VCSH FEW038 BKN065 12/08 Q1011
Fri 15th January 21:30 pm

  Metar Aviation API Data Provided by https://www.checkwx.com/ PHP scripts by weather34.com ©2021